createdAt,value
2019-06-10T00:01:11.881Z,5.53
2019-06-10T00:04:03.500Z,5.00
2019-06-10T00:06:51.122Z,7.70
2019-06-10T00:09:40.796Z,4.67
2019-06-10T00:12:31.474Z,6.37
2019-06-10T00:15:21.410Z,4.77
2019-06-10T00:18:33.506Z,4.97
2019-06-10T00:21:03.253Z,5.93
2019-06-10T00:23:51.959Z,7.07
2019-06-10T00:26:41.466Z,5.90
2019-06-10T00:29:31.304Z,5.90
2019-06-10T00:32:21.548Z,6.03
2019-06-10T00:35:12.367Z,3.77
2019-06-10T00:38:04.370Z,3.70
2019-06-10T00:40:52.140Z,4.77
2019-06-10T00:43:41.252Z,4.60
2019-06-10T00:46:31.649Z,4.20
2019-06-10T00:49:21.292Z,4.27
2019-06-10T00:52:12.183Z,4.03
2019-06-10T00:55:01.696Z,5.97
2019-06-10T00:57:51.561Z,4.53
2019-06-10T01:00:41.517Z,5.10
2019-06-10T01:03:31.398Z,3.93
2019-06-10T01:06:21.338Z,4.27
2019-06-10T01:09:12.758Z,6.60
2019-06-10T01:12:02.801Z,5.77
2019-06-10T01:14:52.262Z,3.63
2019-06-10T01:17:41.694Z,4.13
2019-06-10T01:20:32.536Z,7.40
2019-06-10T01:23:22.025Z,6.00
2019-06-10T01:26:14.127Z,4.03
2019-06-10T01:29:01.761Z,3.80
2019-06-10T01:31:51.410Z,7.67
2019-06-10T01:34:41.690Z,4.80
2019-06-10T01:37:31.110Z,10.33
2019-06-10T01:40:20.914Z,8.60
2019-06-10T01:43:12.965Z,4.50
2019-06-10T01:46:01.630Z,5.03
2019-06-10T01:48:52.207Z,8.00
2019-06-10T01:51:41.351Z,4.97
2019-06-10T01:54:31.647Z,4.30
2019-06-10T01:57:22.512Z,7.03
2019-06-10T02:00:15.921Z,5.10
2019-06-10T02:03:03.676Z,5.87
2019-06-10T02:05:52.876Z,7.90
2019-06-10T02:08:41.934Z,11.30
2019-06-10T02:11:31.745Z,7.87
2019-06-10T02:14:24.147Z,4.67
2019-06-10T02:17:13.058Z,4.73
2019-06-10T02:20:02.057Z,7.17
2019-06-10T02:22:51.560Z,5.13
2019-06-10T02:25:41.261Z,5.40
2019-06-10T02:28:31.653Z,5.63
2019-06-10T02:31:30.048Z,8.40
2019-06-10T02:34:13.353Z,5.73
2019-06-10T02:37:04.758Z,6.07
2019-06-10T02:39:54.125Z,5.50
2019-06-10T02:42:44.058Z,6.07
2019-06-10T02:45:37.302Z,4.93
2019-06-10T02:48:30.145Z,5.90
2019-06-10T02:51:15.831Z,5.20
2019-06-10T02:54:05.091Z,6.10
2019-06-10T02:56:54.235Z,6.07
2019-06-10T02:59:43.656Z,6.70
2019-06-10T03:02:36.188Z,6.23
2019-06-10T03:05:30.647Z,6.83
2019-06-10T03:08:16.049Z,6.00
2019-06-10T03:11:04.314Z,7.07
2019-06-10T03:13:53.175Z,10.10
2019-06-10T03:16:46.842Z,5.67
2019-06-10T03:19:47.133Z,8.17
2019-06-10T03:22:26.554Z,10.23
2019-06-10T03:25:16.287Z,6.63
2019-06-10T03:28:05.788Z,7.43
2019-06-10T03:30:58.798Z,9.23
2019-06-10T03:33:47.563Z,11.00
2019-06-10T03:36:35.734Z,10.70
2019-06-10T03:39:26.823Z,11.37
2019-06-10T03:42:15.281Z,13.57
2019-06-10T03:45:04.467Z,10.23
2019-06-10T03:47:53.724Z,8.37
2019-06-10T03:50:43.136Z,12.93
2019-06-10T03:53:33.607Z,15.10
2019-06-10T03:56:25.057Z,14.33
2019-06-10T03:59:12.929Z,13.67
2019-06-10T04:02:02.320Z,13.37
2019-06-10T04:04:52.397Z,14.00
2019-06-10T04:07:42.691Z,19.30
2019-06-10T04:10:32.447Z,21.23
2019-06-10T04:13:23.666Z,19.97
2019-06-10T04:16:13.182Z,17.13
2019-06-10T04:19:02.727Z,23.13
2019-06-10T04:21:53.154Z,21.67
2019-06-10T04:24:43.146Z,20.47
2019-06-10T04:27:32.834Z,24.00
2019-06-10T04:30:24.322Z,22.57
2019-06-10T04:33:12.756Z,21.73
2019-06-10T04:36:02.838Z,27.77
2019-06-10T04:38:52.639Z,24.47
2019-06-10T04:41:42.712Z,28.30
2019-06-10T04:44:32.973Z,37.93
2019-06-10T04:47:23.784Z,31.67
2019-06-10T04:50:26.090Z,32.23
2019-06-10T04:53:03.159Z,25.80
2019-06-10T04:55:52.408Z,30.90
2019-06-10T04:58:43.256Z,25.23
2019-06-10T05:01:33.606Z,19.40
2019-06-10T05:04:24.005Z,18.77
2019-06-10T05:07:13.358Z,17.63
2019-06-10T05:10:03.254Z,13.17
2019-06-10T05:12:52.574Z,16.07
2019-06-10T05:15:43.384Z,13.43
2019-06-10T05:18:33.311Z,8.80
2019-06-10T05:21:25.106Z,10.57
2019-06-10T05:24:13.524Z,9.10
2019-06-10T05:27:02.326Z,9.83
2019-06-10T05:29:52.743Z,12.17
2019-06-10T05:32:43.210Z,12.63
2019-06-10T05:35:33.939Z,10.27
2019-06-10T05:38:24.033Z,9.30
2019-06-10T05:41:13.307Z,12.70
2019-06-10T05:44:02.770Z,8.57
2019-06-10T05:46:52.898Z,8.07
2019-06-10T05:49:43.073Z,6.47
2019-06-10T05:52:33.876Z,7.60
2019-06-10T05:55:24.344Z,7.80
2019-06-10T05:58:13.454Z,9.10
2019-06-10T06:01:02.950Z,6.60
2019-06-10T06:03:53.039Z,8.50
2019-06-10T06:06:44.961Z,8.70
2019-06-10T06:09:35.057Z,7.93
2019-06-10T06:12:22.889Z,9.03
2019-06-10T06:15:13.073Z,8.67
2019-06-10T06:18:09.932Z,6.80
2019-06-10T06:20:52.632Z,10.57
2019-06-10T06:23:43.634Z,8.27
2019-06-10T06:26:36.473Z,7.27
2019-06-10T06:29:23.377Z,11.23
2019-06-10T06:32:13.197Z,10.30
2019-06-10T06:35:02.519Z,9.13
2019-06-10T06:37:53.957Z,8.97
2019-06-10T06:40:43.552Z,12.67
2019-06-10T06:43:38.957Z,13.30
2019-06-10T06:46:23.984Z,11.27
2019-06-10T06:49:12.945Z,12.67
2019-06-10T06:52:02.871Z,8.43
2019-06-10T06:54:53.026Z,12.03
2019-06-10T06:57:43.334Z,11.93
2019-06-10T07:00:52.995Z,10.97
2019-06-10T07:03:26.182Z,9.47
2019-06-10T07:06:15.856Z,9.40
2019-06-10T07:09:08.196Z,12.30
2019-06-10T07:12:02.379Z,9.57
2019-06-10T07:14:52.622Z,11.07
2019-06-10T07:17:45.128Z,9.93
2019-06-10T07:20:33.323Z,7.90
2019-06-10T07:23:22.507Z,12.03
2019-06-10T07:26:12.735Z,16.53
2019-06-10T07:29:02.996Z,7.60
2019-06-10T07:31:53.596Z,11.13
2019-06-10T07:34:46.815Z,9.60
2019-06-10T07:37:34.965Z,8.70
2019-06-10T07:40:24.921Z,11.20
2019-06-10T07:43:13.335Z,9.83
2019-06-10T07:46:03.379Z,8.90
2019-06-10T07:48:56.169Z,8.93
2019-06-10T07:51:46.130Z,10.77
2019-06-10T07:54:34.807Z,8.83
2019-06-10T07:57:24.407Z,11.37
2019-06-10T08:00:16.566Z,8.63
2019-06-10T08:03:05.189Z,10.03
2019-06-10T08:05:54.163Z,8.67
2019-06-10T08:08:45.315Z,12.03
2019-06-10T08:11:35.056Z,9.67
2019-06-10T08:14:23.949Z,9.93
2019-06-10T08:17:13.298Z,10.47
2019-06-10T08:20:02.691Z,13.30
2019-06-10T08:22:57.508Z,11.77
2019-06-10T08:25:46.831Z,10.93
2019-06-10T08:28:33.528Z,12.70
2019-06-10T08:31:22.886Z,15.07
2019-06-10T08:34:13.431Z,12.07
2019-06-10T08:37:04.214Z,15.53
2019-06-10T08:39:53.686Z,11.20
2019-06-10T08:42:44.145Z,14.30
2019-06-10T08:45:33.749Z,12.43
2019-06-10T08:48:22.887Z,12.47
2019-06-10T08:51:12.964Z,14.77
2019-06-10T08:54:02.313Z,16.23
2019-06-10T08:56:54.020Z,14.60
2019-06-10T08:59:44.802Z,14.73
2019-06-10T09:02:33.450Z,17.10
2019-06-10T09:05:23.725Z,17.63
2019-06-10T09:08:13.375Z,14.27
2019-06-10T09:11:02.647Z,17.30
2019-06-10T09:13:53.240Z,12.53
2019-06-10T09:16:46.094Z,13.80
2019-06-10T09:19:33.342Z,16.43
2019-06-10T09:22:23.616Z,13.90
2019-06-10T09:25:14.869Z,13.80
2019-06-10T09:28:03.928Z,13.90
2019-06-10T09:30:58.952Z,13.30
2019-06-10T09:33:49.064Z,13.93
2019-06-10T09:36:34.629Z,13.43
2019-06-10T09:39:24.452Z,14.80
2019-06-10T09:42:14.482Z,13.20
2019-06-10T09:45:05.795Z,17.10
2019-06-10T09:47:59.818Z,11.03
2019-06-10T09:50:50.567Z,11.87
2019-06-10T09:53:42.746Z,11.03
2019-06-10T09:56:27.477Z,11.20
2019-06-10T09:59:16.712Z,11.73
2019-06-10T10:02:07.375Z,10.67
2019-06-10T10:04:58.258Z,11.13
2019-06-10T10:07:50.768Z,10.40
2019-06-10T10:10:39.386Z,8.80
2019-06-10T10:13:27.929Z,17.23
2019-06-10T10:16:16.863Z,13.30
2019-06-10T10:19:06.390Z,12.20
2019-06-10T10:21:58.365Z,11.00
2019-06-10T10:24:47.491Z,15.30
2019-06-10T10:27:36.564Z,11.60
2019-06-10T10:30:28.857Z,11.23
2019-06-10T10:33:17.913Z,12.93
2019-06-10T10:36:07.252Z,11.73
2019-06-10T10:38:56.005Z,10.13
2019-06-10T10:41:46.769Z,13.73
2019-06-10T10:44:36.107Z,13.33
2019-06-10T10:47:27.732Z,15.50
2019-06-10T10:50:17.504Z,14.30
2019-06-10T10:53:07.195Z,12.20
2019-06-10T10:55:56.334Z,12.83
2019-06-10T10:58:45.886Z,14.23
2019-06-10T11:01:35.786Z,14.20
2019-06-10T11:04:25.348Z,13.47
2019-06-10T11:07:14.467Z,11.87
2019-06-10T11:10:04.479Z,20.07
2019-06-10T11:12:54.150Z,15.30
2019-06-10T11:15:45.814Z,11.10
2019-06-10T11:18:35.012Z,9.47
2019-06-10T11:21:24.783Z,10.73
2019-06-10T11:24:32.463Z,11.70
2019-06-10T11:27:08.194Z,13.77
2019-06-10T11:29:59.025Z,13.77
2019-06-10T11:32:48.221Z,14.20
2019-06-10T11:35:37.823Z,13.67
2019-06-10T11:38:26.979Z,18.00
2019-06-10T11:41:16.585Z,14.10
2019-06-10T11:44:05.302Z,11.50
2019-06-10T11:46:59.172Z,11.53
2019-06-10T11:49:48.957Z,12.00
2019-06-10T11:52:38.846Z,10.63
2019-06-10T11:55:28.084Z,10.90
2019-06-10T11:58:17.663Z,13.20
2019-06-10T12:01:06.960Z,14.10
2019-06-10T12:03:58.812Z,12.50
2019-06-10T12:06:48.611Z,10.80
2019-06-10T12:09:38.050Z,14.80
2019-06-10T12:12:27.159Z,11.27
2019-06-10T12:15:16.562Z,11.53
2019-06-10T12:18:08.568Z,9.70
2019-06-10T12:21:01.549Z,8.20
2019-06-10T12:23:47.781Z,9.50
2019-06-10T12:26:37.565Z,8.80
2019-06-10T12:29:27.194Z,10.80
2019-06-10T12:32:16.845Z,8.23
2019-06-10T12:35:07.130Z,7.93
2019-06-10T12:37:59.539Z,7.50
2019-06-10T12:40:46.556Z,11.73
2019-06-10T12:43:35.343Z,9.10
2019-06-10T12:46:24.073Z,9.43
2019-06-10T12:49:13.159Z,10.77
2019-06-10T12:52:07.184Z,10.00
2019-06-10T12:54:53.358Z,12.43
2019-06-10T12:57:42.794Z,11.17
2019-06-10T13:00:37.457Z,12.93
2019-06-10T13:03:26.239Z,6.33
2019-06-10T13:06:16.740Z,6.83
2019-06-10T13:09:08.103Z,9.90
2019-06-10T13:11:57.843Z,8.33
2019-06-10T13:14:47.361Z,6.93
2019-06-10T13:17:36.373Z,6.00
2019-06-10T13:20:25.621Z,8.73
2019-06-10T13:23:23.345Z,7.90
2019-06-10T13:26:12.121Z,6.43
2019-06-10T13:28:56.894Z,6.93
2019-06-10T13:31:46.254Z,6.20
2019-06-10T13:34:35.710Z,7.20
2019-06-10T13:37:24.996Z,5.83
2019-06-10T13:40:15.054Z,8.53
2019-06-10T13:43:05.954Z,9.77
2019-06-10T13:45:55.271Z,10.50
2019-06-10T13:48:44.608Z,7.03
2019-06-10T13:51:35.611Z,6.33
2019-06-10T13:54:24.992Z,7.53
2019-06-10T13:57:14.383Z,6.80
2019-06-10T14:00:06.056Z,8.30
2019-06-10T14:02:54.588Z,6.77
2019-06-10T14:05:45.052Z,7.10
2019-06-10T14:08:34.930Z,7.63
2019-06-10T14:11:28.465Z,10.33
2019-06-10T14:14:18.180Z,7.20
2019-06-10T14:17:05.704Z,6.10
2019-06-10T14:19:55.536Z,7.33
2019-06-10T14:22:44.582Z,8.77
2019-06-10T14:25:33.845Z,7.53
2019-06-10T14:28:38.444Z,8.07
2019-06-10T14:31:33.735Z,9.90
2019-06-10T14:34:05.707Z,6.67
2019-06-10T14:36:54.683Z,6.43
2019-06-10T14:39:43.622Z,8.50
2019-06-10T14:42:32.937Z,7.23
2019-06-10T14:45:23.164Z,7.57
2019-06-10T14:48:15.646Z,5.93
2019-06-10T14:51:05.390Z,8.53
2019-06-10T14:53:54.850Z,6.67
2019-06-10T14:56:52.963Z,7.30
2019-06-10T14:59:35.226Z,12.00
2019-06-10T15:02:24.638Z,7.57
2019-06-10T15:05:17.365Z,5.93
2019-06-10T15:08:04.728Z,6.33
2019-06-10T15:10:53.747Z,8.50
2019-06-10T15:13:43.473Z,7.90
2019-06-10T15:16:33.574Z,5.53
2019-06-10T15:19:28.283Z,6.80
2019-06-10T15:22:15.111Z,5.70
2019-06-10T15:25:03.359Z,4.80
2019-06-10T15:27:52.824Z,4.80
2019-06-10T15:30:43.249Z,4.80
2019-06-10T15:33:32.899Z,6.57
2019-06-10T15:36:21.460Z,5.60
2019-06-10T15:39:11.695Z,6.67
2019-06-10T15:42:03.005Z,5.50
2019-06-10T15:44:55.174Z,7.10
2019-06-10T15:47:42.781Z,5.00
2019-06-10T15:50:32.413Z,5.03
2019-06-10T15:53:25.451Z,4.67
2019-06-10T15:56:23.882Z,5.43
2019-06-10T15:59:03.112Z,8.33
2019-06-10T16:01:53.078Z,5.40
2019-06-10T16:04:43.252Z,5.30
2019-06-10T16:07:32.998Z,7.37
2019-06-10T16:10:27.437Z,6.20
2019-06-10T16:13:14.445Z,6.83
2019-06-10T16:16:03.783Z,6.30
2019-06-10T16:18:53.659Z,5.50
2019-06-10T16:21:43.014Z,7.10
2019-06-10T16:24:33.299Z,5.93
2019-06-10T16:27:22.999Z,7.83
2019-06-10T16:30:14.622Z,8.17
2019-06-10T16:33:04.380Z,5.43
2019-06-10T16:35:53.835Z,7.90
2019-06-10T16:38:42.973Z,6.47
2019-06-10T16:41:32.363Z,6.33
2019-06-10T16:44:25.073Z,7.70
2019-06-10T16:47:12.686Z,5.23
2019-06-10T16:50:03.234Z,7.93
2019-06-10T16:52:53.559Z,10.37
2019-06-10T16:55:43.395Z,11.50
2019-06-10T16:58:33.394Z,8.47
2019-06-10T17:01:25.465Z,4.80
2019-06-10T17:04:13.878Z,7.40
2019-06-10T17:07:02.781Z,5.90
2019-06-10T17:09:52.623Z,6.83
2019-06-10T17:12:42.663Z,5.03
2019-06-10T17:15:31.555Z,11.73
2019-06-10T17:18:23.114Z,6.10
2019-06-10T17:21:13.007Z,5.30
2019-06-10T17:24:03.450Z,4.77
2019-06-10T17:26:53.204Z,6.37
2019-06-10T17:29:42.739Z,4.40
2019-06-10T17:32:32.954Z,6.10
2019-06-10T17:35:22.273Z,5.37
2019-06-10T17:38:12.265Z,7.90
2019-06-10T17:41:02.888Z,7.03
2019-06-10T17:43:52.172Z,5.40
2019-06-10T17:46:42.612Z,4.90
2019-06-10T17:49:34.417Z,7.87
2019-06-10T17:52:24.108Z,6.60
2019-06-10T17:55:14.170Z,6.23
2019-06-10T17:58:03.190Z,5.90
2019-06-10T18:00:53.180Z,6.30
2019-06-10T18:03:43.189Z,7.93
2019-06-10T18:06:36.090Z,5.93
2019-06-10T18:09:24.854Z,6.40
2019-06-10T18:12:14.636Z,6.60
2019-06-10T18:15:03.677Z,6.20
2019-06-10T18:17:55.771Z,5.77
2019-06-10T18:20:44.373Z,8.57
2019-06-10T18:23:33.267Z,5.97
2019-06-10T18:26:23.256Z,6.13
2019-06-10T18:29:13.051Z,6.60
2019-06-10T18:32:03.523Z,8.43
2019-06-10T18:34:52.947Z,7.73
2019-06-10T18:37:42.343Z,7.93
2019-06-10T18:40:33.510Z,7.30
2019-06-10T18:43:23.183Z,6.00
2019-06-10T18:46:12.868Z,8.00
2019-06-10T18:49:02.880Z,6.93
2019-06-10T18:51:53.225Z,6.50
2019-06-10T18:54:43.655Z,9.13
2019-06-10T18:57:33.560Z,6.93
2019-06-10T19:00:24.845Z,7.30
2019-06-10T19:03:16.745Z,7.93
2019-06-10T19:06:05.205Z,7.93
2019-06-10T19:08:54.094Z,8.97
2019-06-10T19:11:43.494Z,10.60
2019-06-10T19:14:35.139Z,7.83
2019-06-10T19:17:24.762Z,9.30
2019-06-10T19:20:15.290Z,8.10
2019-06-10T19:23:06.353Z,9.10
2019-06-10T19:25:54.851Z,10.20
2019-06-10T19:28:45.239Z,12.17
2019-06-10T19:31:38.103Z,12.03
2019-06-10T19:34:25.720Z,13.67
2019-06-10T19:37:15.497Z,11.23
2019-06-10T19:40:05.607Z,12.60
2019-06-10T19:42:55.026Z,12.33
2019-06-10T19:45:44.984Z,9.37
2019-06-10T19:48:38.368Z,13.33
2019-06-10T19:51:24.829Z,14.77
2019-06-10T19:54:14.418Z,9.87
2019-06-10T19:57:04.034Z,9.27
2019-06-10T20:00:07.340Z,9.50
2019-06-10T20:02:46.537Z,9.23
2019-06-10T20:05:36.136Z,8.80
2019-06-10T20:08:25.096Z,8.43
2019-06-10T20:11:14.137Z,9.03
2019-06-10T20:14:03.174Z,8.30
2019-06-10T20:16:53.139Z,7.90
2019-06-10T20:19:44.404Z,8.77
2019-06-10T20:22:32.548Z,8.20
2019-06-10T20:25:22.495Z,8.73
2019-06-10T20:28:13.173Z,8.03
2019-06-10T20:31:02.495Z,8.23
2019-06-10T20:33:52.436Z,7.77
2019-06-10T20:36:43.461Z,9.00
2019-06-10T20:39:32.982Z,7.80
2019-06-10T20:42:23.268Z,9.57
2019-06-10T20:45:13.272Z,8.90
2019-06-10T20:48:02.870Z,8.90
2019-06-10T20:50:53.348Z,9.17
2019-06-10T20:53:43.284Z,8.53
2019-06-10T20:56:36.090Z,9.93
2019-06-10T20:59:26.347Z,7.40
2019-06-10T21:02:18.477Z,8.47
2019-06-10T21:05:10.276Z,9.97
2019-06-10T21:07:59.269Z,7.47
2019-06-10T21:10:49.811Z,6.73
2019-06-10T21:13:40.029Z,7.27
2019-06-10T21:16:28.754Z,6.30
2019-06-10T21:19:18.214Z,6.47
2019-06-10T21:22:07.673Z,7.13
2019-06-10T21:24:58.496Z,6.13
2019-06-10T21:27:48.493Z,6.20
2019-06-10T21:30:42.151Z,6.70
2019-06-10T21:33:28.640Z,6.93
2019-06-10T21:36:18.502Z,6.70
2019-06-10T21:39:09.019Z,6.10
2019-06-10T21:41:57.881Z,6.23
2019-06-10T21:44:47.976Z,5.93
2019-06-10T21:47:37.748Z,7.10
2019-06-10T21:50:26.931Z,6.77
2019-06-10T21:53:16.504Z,6.27
2019-06-10T21:56:06.038Z,6.50
2019-06-10T21:58:55.656Z,6.33
2019-06-10T22:04:27.889Z,6.97
2019-06-10T22:07:17.132Z,7.57
2019-06-10T22:10:06.948Z,6.30
2019-06-10T22:12:56.254Z,6.00
2019-06-10T22:15:46.376Z,6.43
2019-06-10T22:18:35.630Z,7.53
2019-06-10T22:21:24.275Z,6.77
2019-06-10T22:24:13.125Z,6.87
2019-06-10T22:27:02.812Z,6.67
2019-06-10T22:29:54.288Z,7.57
2019-06-10T22:32:43.092Z,7.90
2019-06-10T22:35:32.548Z,8.70
2019-06-10T22:38:22.272Z,7.53
2019-06-10T22:41:12.331Z,8.37
2019-06-10T22:44:03.517Z,7.83
2019-06-10T22:46:55.227Z,9.00
2019-06-10T22:49:43.748Z,10.17
2019-06-10T22:52:32.581Z,8.83
2019-06-10T22:55:21.720Z,9.80
2019-06-10T22:58:14.252Z,9.77
2019-06-10T23:01:04.023Z,9.00
2019-06-10T23:03:52.347Z,10.00
2019-06-10T23:06:41.808Z,9.13
2019-06-10T23:09:30.975Z,9.97
2019-06-10T23:12:20.041Z,12.30
2019-06-10T23:15:09.340Z,9.60
2019-06-10T23:17:59.152Z,10.53
2019-06-10T23:20:49.283Z,10.33
2019-06-10T23:23:37.932Z,11.43
2019-06-10T23:26:26.411Z,14.57
2019-06-10T23:29:15.923Z,12.63
2019-06-10T23:32:06.975Z,14.87
2019-06-10T23:34:57.881Z,14.07
2019-06-10T23:37:45.707Z,14.43
2019-06-10T23:40:34.746Z,15.07
2019-06-10T23:43:23.436Z,13.20
2019-06-10T23:46:12.998Z,13.87
2019-06-10T23:49:04.372Z,14.47
2019-06-10T23:51:54.131Z,13.00
2019-06-10T23:54:42.190Z,14.30
2019-06-10T23:57:32.888Z,17.63
